createdAt,value
2018-06-09T00:01:48.768Z,19.81
2018-06-09T00:04:17.451Z,19.74
2018-06-09T00:06:46.009Z,19.68
2018-06-09T00:09:14.616Z,19.67
2018-06-09T00:11:43.278Z,19.67
2018-06-09T00:14:11.819Z,19.59
2018-06-09T00:16:40.447Z,19.57
2018-06-09T00:19:09.077Z,19.59
2018-06-09T00:21:37.617Z,19.47
2018-06-09T00:24:06.196Z,19.49
2018-06-09T00:26:34.801Z,19.40
2018-06-09T00:29:03.271Z,19.32
2018-06-09T00:31:31.878Z,19.33
2018-06-09T00:34:00.509Z,19.12
2018-06-09T00:36:29.091Z,19.06
2018-06-09T00:38:57.608Z,19.01
2018-06-09T00:41:26.478Z,18.87
2018-06-09T00:43:55.066Z,18.89
2018-06-09T00:46:23.628Z,18.96
2018-06-09T00:48:52.169Z,18.93
2018-06-09T00:51:20.751Z,18.74
2018-06-09T00:53:49.471Z,18.79
2018-06-09T00:56:29.312Z,18.86
2018-06-09T00:58:57.817Z,18.86
2018-06-09T01:01:26.301Z,18.75
2018-06-09T01:03:54.837Z,18.80
2018-06-09T01:06:23.438Z,18.85
2018-06-09T01:08:51.951Z,18.78
2018-06-09T01:11:20.536Z,18.63
2018-06-09T01:13:49.822Z,18.67
2018-06-09T01:16:18.327Z,18.59
2018-06-09T01:18:46.837Z,18.67
2018-06-09T01:21:15.815Z,18.68
2018-06-09T01:23:44.362Z,18.59
2018-06-09T01:26:12.843Z,18.62
2018-06-09T01:28:41.426Z,18.63
2018-06-09T01:31:09.999Z,18.66
2018-06-09T01:33:38.581Z,18.70
2018-06-09T01:36:07.206Z,18.77
2018-06-09T01:38:37.387Z,18.68
2018-06-09T01:41:06.053Z,18.63
2018-06-09T01:43:34.653Z,18.66
2018-06-09T01:46:03.220Z,18.60
2018-06-09T01:48:31.759Z,18.55
2018-06-09T01:51:00.287Z,18.57
2018-06-09T01:53:28.892Z,18.53
2018-06-09T01:55:57.477Z,18.51
2018-06-09T01:58:25.955Z,18.48
2018-06-09T02:00:54.449Z,18.40
2018-06-09T02:03:22.971Z,18.42
2018-06-09T02:05:51.618Z,18.46
2018-06-09T02:08:20.308Z,18.52
2018-06-09T02:10:48.845Z,18.44
2018-06-09T02:13:17.474Z,18.45
2018-06-09T02:15:46.028Z,18.49
2018-06-09T02:18:14.530Z,18.49
2018-06-09T02:20:43.071Z,18.47
2018-06-09T02:23:11.651Z,18.45
2018-06-09T02:25:40.129Z,18.36
2018-06-09T02:28:08.687Z,18.38
2018-06-09T02:30:37.185Z,18.38
2018-06-09T02:33:05.732Z,18.34
2018-06-09T02:35:34.241Z,18.30
2018-06-09T02:38:02.808Z,18.28
2018-06-09T02:40:31.332Z,18.26
2018-06-09T02:42:59.901Z,18.13
2018-06-09T02:45:28.491Z,18.08
2018-06-09T02:47:57.140Z,18.09
2018-06-09T02:50:25.756Z,18.09
2018-06-09T02:52:54.302Z,18.02
2018-06-09T02:55:22.891Z,18.05
2018-06-09T02:57:51.412Z,18.02
2018-06-09T03:00:19.950Z,17.96
2018-06-09T03:02:48.872Z,18.02
2018-06-09T03:05:17.609Z,18.01
2018-06-09T03:07:46.214Z,18.02
2018-06-09T03:10:14.901Z,17.94
2018-06-09T03:12:43.575Z,18.00
2018-06-09T03:15:12.182Z,18.01
2018-06-09T03:17:40.854Z,17.98
2018-06-09T03:20:09.849Z,17.93
2018-06-09T03:22:38.526Z,17.81
2018-06-09T03:25:07.422Z,17.81
2018-06-09T03:27:35.974Z,17.79
2018-06-09T03:30:04.693Z,17.75
2018-06-09T03:32:33.287Z,17.69
2018-06-09T03:35:01.861Z,17.71
2018-06-09T03:37:30.400Z,17.79
2018-06-09T03:39:58.961Z,17.83
2018-06-09T03:42:27.508Z,17.87
2018-06-09T03:44:56.096Z,17.86
2018-06-09T03:47:24.686Z,17.87
2018-06-09T03:49:53.326Z,17.94
2018-06-09T03:52:22.068Z,18.00
2018-06-09T03:54:50.646Z,18.08
2018-06-09T03:57:19.188Z,18.14
2018-06-09T03:59:47.704Z,18.20
2018-06-09T04:02:16.342Z,18.27
2018-06-09T04:04:45.101Z,18.32
2018-06-09T04:07:13.751Z,18.32
2018-06-09T04:09:42.504Z,18.36
2018-06-09T04:12:11.014Z,18.39
2018-06-09T04:14:39.537Z,18.41
2018-06-09T04:17:08.100Z,18.36
2018-06-09T04:19:36.709Z,18.45
2018-06-09T04:22:05.395Z,18.46
2018-06-09T04:24:34.266Z,18.51
2018-06-09T04:27:02.769Z,18.58
2018-06-09T04:29:31.399Z,18.59
2018-06-09T04:32:00.083Z,18.68
2018-06-09T04:34:28.636Z,18.74
2018-06-09T04:36:57.138Z,18.82
2018-06-09T04:39:25.720Z,18.83
2018-06-09T04:41:54.250Z,18.93
2018-06-09T04:44:22.959Z,19.01
2018-06-09T04:46:51.527Z,19.11
2018-06-09T04:49:20.078Z,19.12
2018-06-09T04:51:48.657Z,19.26
2018-06-09T04:54:17.180Z,19.28
2018-06-09T04:56:45.681Z,19.44
2018-06-09T04:59:14.242Z,19.54
2018-06-09T05:01:43.199Z,19.79
2018-06-09T05:04:11.824Z,20.44
2018-06-09T05:06:40.370Z,20.38
2018-06-09T05:09:09.314Z,20.40
2018-06-09T05:11:37.932Z,20.42
2018-06-09T05:14:06.578Z,20.35
2018-06-09T05:16:35.254Z,20.48
2018-06-09T05:19:03.961Z,20.47
2018-06-09T05:21:32.546Z,20.27
2018-06-09T05:24:01.315Z,20.30
2018-06-09T05:26:29.984Z,20.35
2018-06-09T05:28:58.749Z,20.34
2018-06-09T05:31:27.338Z,20.37
2018-06-09T05:33:55.978Z,20.41
2018-06-09T05:36:24.561Z,20.80
2018-06-09T05:38:53.134Z,21.40
2018-06-09T05:41:21.912Z,21.85
2018-06-09T05:43:50.671Z,22.31
2018-06-09T05:46:19.387Z,22.44
2018-06-09T05:48:48.011Z,22.17
2018-06-09T05:51:16.941Z,22.15
2018-06-09T05:53:45.507Z,21.87
2018-06-09T05:56:14.031Z,22.17
2018-06-09T05:58:42.713Z,22.11
2018-06-09T06:01:11.407Z,22.27
2018-06-09T06:03:40.112Z,22.59
2018-06-09T06:06:09.357Z,22.80
2018-06-09T06:08:37.876Z,23.72
2018-06-09T06:11:06.397Z,24.12
2018-06-09T06:13:35.151Z,24.77
2018-06-09T06:16:04.056Z,25.19
2018-06-09T06:18:32.710Z,25.24
2018-06-09T06:21:01.315Z,25.03
2018-06-09T06:23:29.925Z,25.74
2018-06-09T06:25:58.427Z,25.75
2018-06-09T06:28:26.958Z,25.80
2018-06-09T06:30:58.618Z,25.45
2018-06-09T06:33:27.874Z,25.36
2018-06-09T06:35:57.568Z,25.20
2018-06-09T06:38:32.577Z,25.26
2018-06-09T06:41:01.268Z,24.41
2018-06-09T06:43:31.400Z,24.90
2018-06-09T06:46:02.099Z,25.19
2018-06-09T06:48:30.827Z,25.02
2018-06-09T06:50:59.487Z,24.80
2018-06-09T06:53:28.486Z,24.86
2018-06-09T06:55:57.407Z,24.81
2018-06-09T06:58:26.481Z,24.99
2018-06-09T07:01:00.691Z,25.16
2018-06-09T07:03:29.301Z,24.88
2018-06-09T07:05:58.919Z,25.02
2018-06-09T07:08:27.693Z,25.01
2018-06-09T07:10:57.087Z,25.12
2018-06-09T07:13:31.033Z,25.10
2018-06-09T07:15:59.775Z,25.26
2018-06-09T07:18:28.375Z,25.25
2018-06-09T07:20:57.066Z,25.63
2018-06-09T07:23:25.635Z,25.84
2018-06-09T07:25:57.280Z,25.55
2018-06-09T07:28:26.251Z,25.80
2018-06-09T07:30:55.291Z,26.13
2018-06-09T07:33:23.843Z,26.10
2018-06-09T07:35:52.453Z,26.42
2018-06-09T07:38:21.118Z,26.49
2018-06-09T07:40:49.831Z,26.57
2018-06-09T07:43:18.392Z,26.40
2018-06-09T07:45:47.038Z,26.64
2018-06-09T07:48:15.619Z,26.60
2018-06-09T07:50:44.306Z,26.61
2018-06-09T07:53:13.129Z,26.76
2018-06-09T07:55:42.025Z,26.73
2018-06-09T07:58:11.504Z,26.62
2018-06-09T08:00:40.529Z,26.90
2018-06-09T08:03:09.224Z,26.93
2018-06-09T08:05:37.803Z,27.05
2018-06-09T08:08:06.440Z,27.24
2018-06-09T08:10:35.084Z,27.04
2018-06-09T08:13:03.655Z,26.95
2018-06-09T08:15:32.235Z,27.15
2018-06-09T08:18:00.915Z,27.26
2018-06-09T08:20:29.636Z,26.97
2018-06-09T08:22:58.226Z,26.63
2018-06-09T08:25:27.405Z,26.79
2018-06-09T08:27:55.950Z,26.78
2018-06-09T08:30:24.570Z,27.03
2018-06-09T08:32:53.111Z,27.25
2018-06-09T08:35:21.859Z,27.22
2018-06-09T08:37:50.840Z,27.26
2018-06-09T08:40:19.467Z,27.42
2018-06-09T08:42:47.986Z,27.39
2018-06-09T08:45:16.633Z,27.45
2018-06-09T08:47:45.114Z,27.39
2018-06-09T08:50:14.484Z,27.55
2018-06-09T08:52:43.040Z,27.79
2018-06-09T08:55:11.659Z,28.01
2018-06-09T08:57:40.504Z,28.16
2018-06-09T09:00:09.171Z,28.34
2018-06-09T09:02:37.693Z,28.44
2018-06-09T09:05:06.269Z,28.45
2018-06-09T09:07:34.867Z,28.57
2018-06-09T09:10:03.505Z,28.71
2018-06-09T09:12:32.095Z,28.85
2018-06-09T09:15:00.915Z,28.97
2018-06-09T09:17:29.653Z,29.08
2018-06-09T09:19:58.199Z,29.02
2018-06-09T09:22:26.717Z,29.17
2018-06-09T09:24:55.528Z,29.27
2018-06-09T09:27:24.447Z,28.58
2018-06-09T09:29:53.106Z,28.59
2018-06-09T09:32:21.828Z,28.76
2018-06-09T09:34:50.410Z,28.92
2018-06-09T09:37:19.025Z,28.92
2018-06-09T09:39:47.611Z,29.05
2018-06-09T09:42:16.090Z,29.23
2018-06-09T09:44:44.903Z,29.22
2018-06-09T09:47:13.398Z,29.29
2018-06-09T09:49:41.953Z,29.19
2018-06-09T09:52:10.636Z,29.36
2018-06-09T09:54:40.246Z,29.50
2018-06-09T09:57:09.205Z,29.68
2018-06-09T09:59:37.858Z,29.65
2018-06-09T10:02:06.631Z,29.22
2018-06-09T10:04:35.188Z,29.54
2018-06-09T10:07:03.980Z,29.54
2018-06-09T10:09:32.790Z,29.57
2018-06-09T10:12:01.905Z,29.63
2018-06-09T10:14:30.743Z,29.72
2018-06-09T10:16:59.267Z,29.86
2018-06-09T10:19:27.754Z,30.02
2018-06-09T10:21:56.533Z,30.05
2018-06-09T10:24:25.023Z,29.33
2018-06-09T10:26:53.527Z,29.72
2018-06-09T10:29:22.045Z,29.56
2018-06-09T10:31:50.823Z,29.76
2018-06-09T10:34:19.552Z,29.95
2018-06-09T10:36:48.468Z,30.10
2018-06-09T10:39:17.009Z,29.78
2018-06-09T10:41:45.980Z,29.99
2018-06-09T10:44:15.005Z,29.72
2018-06-09T10:46:43.522Z,29.89
2018-06-09T10:49:12.168Z,30.28
2018-06-09T10:51:40.680Z,30.29
2018-06-09T10:54:09.148Z,30.40
2018-06-09T10:56:38.053Z,30.39
2018-06-09T10:59:07.042Z,30.42
2018-06-09T11:01:35.571Z,30.54
2018-06-09T11:04:04.132Z,30.34
2018-06-09T11:06:32.763Z,30.38
2018-06-09T11:09:01.324Z,30.26
2018-06-09T11:11:30.211Z,30.15
2018-06-09T11:13:58.774Z,30.15
2018-06-09T11:16:27.345Z,30.33
2018-06-09T11:18:55.933Z,30.72
2018-06-09T11:21:24.552Z,30.56
2018-06-09T11:23:53.804Z,30.45
2018-06-09T11:26:22.627Z,30.24
2018-06-09T11:28:51.369Z,30.24
2018-06-09T11:31:20.562Z,30.29
2018-06-09T11:33:49.254Z,30.22
2018-06-09T11:36:18.391Z,30.10
2018-06-09T11:38:47.453Z,30.31
2018-06-09T11:41:16.172Z,30.06
2018-06-09T11:43:45.031Z,29.97
2018-06-09T11:46:14.001Z,30.03
2018-06-09T11:48:42.491Z,30.04
2018-06-09T11:51:11.020Z,30.11
2018-06-09T11:53:39.550Z,30.08
2018-06-09T11:56:08.317Z,30.17
2018-06-09T11:58:37.449Z,30.16
2018-06-09T12:01:06.376Z,30.34
2018-06-09T12:03:34.916Z,30.32
2018-06-09T12:06:03.427Z,30.45
2018-06-09T12:08:31.979Z,30.52
2018-06-09T12:11:00.597Z,30.62
2018-06-09T12:13:29.131Z,30.56
2018-06-09T12:15:57.669Z,30.66
2018-06-09T12:18:26.661Z,30.81
2018-06-09T12:20:55.180Z,30.70
2018-06-09T12:23:23.752Z,30.96
2018-06-09T12:25:52.323Z,30.68
2018-06-09T12:28:20.910Z,30.63
2018-06-09T12:30:49.529Z,30.62
2018-06-09T12:33:18.147Z,30.80
2018-06-09T12:35:46.955Z,30.98
2018-06-09T12:38:15.547Z,31.06
2018-06-09T12:40:44.188Z,31.21
2018-06-09T12:43:12.776Z,31.32
2018-06-09T12:45:41.338Z,31.26
2018-06-09T12:48:09.934Z,31.24
2018-06-09T12:50:39.760Z,31.05
2018-06-09T12:53:08.987Z,31.19
2018-06-09T12:55:38.438Z,31.41
2018-06-09T12:58:07.339Z,31.30
2018-06-09T13:00:35.957Z,31.37
2018-06-09T13:03:04.737Z,31.18
2018-06-09T13:05:33.635Z,30.57
2018-06-09T13:08:02.261Z,30.81
2018-06-09T13:10:30.938Z,30.98
2018-06-09T13:12:59.499Z,30.77
2018-06-09T13:15:28.245Z,30.57
2018-06-09T13:17:56.949Z,30.61
2018-06-09T13:20:25.418Z,30.45
2018-06-09T13:22:53.941Z,30.48
2018-06-09T13:25:22.577Z,30.54
2018-06-09T13:27:51.094Z,30.23
2018-06-09T13:30:19.611Z,29.87
2018-06-09T13:32:48.262Z,30.05
2018-06-09T13:35:16.813Z,30.05
2018-06-09T13:37:45.300Z,29.99
2018-06-09T13:40:13.848Z,30.03
2018-06-09T13:42:44.498Z,30.14
2018-06-09T13:45:13.735Z,29.76
2018-06-09T13:47:42.360Z,29.94
2018-06-09T13:50:10.910Z,29.79
2018-06-09T13:52:39.558Z,29.97
2018-06-09T13:55:08.203Z,29.98
2018-06-09T13:57:36.998Z,30.08
2018-06-09T14:00:05.728Z,29.85
2018-06-09T14:02:34.329Z,29.84
2018-06-09T14:05:02.921Z,29.75
2018-06-09T14:07:31.470Z,29.55
2018-06-09T14:10:00.693Z,29.09
2018-06-09T14:12:29.175Z,28.67
2018-06-09T14:14:57.765Z,27.71
2018-06-09T14:17:26.300Z,27.37
2018-06-09T14:19:54.814Z,27.21
2018-06-09T14:22:23.367Z,26.66
2018-06-09T14:24:52.026Z,26.53
2018-06-09T14:27:20.564Z,26.27
2018-06-09T14:29:49.103Z,26.19
2018-06-09T14:32:17.811Z,26.37
2018-06-09T14:34:46.548Z,26.31
2018-06-09T14:37:15.027Z,26.50
2018-06-09T14:39:43.549Z,26.59
2018-06-09T14:42:12.049Z,26.75
2018-06-09T14:44:40.603Z,26.77
2018-06-09T14:47:09.133Z,26.68
2018-06-09T14:49:38.042Z,26.59
2018-06-09T14:52:06.697Z,26.44
2018-06-09T14:54:35.257Z,26.51
2018-06-09T14:57:04.585Z,26.36
2018-06-09T14:59:33.172Z,26.30
2018-06-09T15:02:02.076Z,26.37
2018-06-09T15:04:30.894Z,26.47
2018-06-09T15:06:59.615Z,26.50
2018-06-09T15:09:28.563Z,26.58
2018-06-09T15:11:57.356Z,26.71
2018-06-09T15:14:25.952Z,26.59
2018-06-09T15:16:54.630Z,26.66
2018-06-09T15:19:23.136Z,26.76
2018-06-09T15:21:51.783Z,26.96
2018-06-09T15:24:20.543Z,27.24
2018-06-09T15:26:49.555Z,26.84
2018-06-09T15:29:18.206Z,26.72
2018-06-09T15:31:46.928Z,26.84
2018-06-09T15:34:15.436Z,26.73
2018-06-09T15:36:43.999Z,26.90
2018-06-09T15:39:12.675Z,26.80
2018-06-09T15:41:41.195Z,26.59
2018-06-09T15:44:10.061Z,26.91
2018-06-09T15:46:38.834Z,27.09
2018-06-09T15:49:07.445Z,26.86
2018-06-09T15:51:36.248Z,26.77
2018-06-09T15:54:05.075Z,26.88
2018-06-09T15:56:33.860Z,26.66
2018-06-09T15:59:02.379Z,26.78
2018-06-09T16:01:31.142Z,26.53
2018-06-09T16:03:59.989Z,26.33
2018-06-09T16:06:28.486Z,26.49
2018-06-09T16:08:57.076Z,26.39
2018-06-09T16:11:25.671Z,26.51
2018-06-09T16:13:54.239Z,26.58
2018-06-09T16:16:22.899Z,26.77
2018-06-09T16:18:51.583Z,26.77
2018-06-09T16:21:20.260Z,26.66
2018-06-09T16:23:48.894Z,26.73
2018-06-09T16:26:17.438Z,26.77
2018-06-09T16:28:46.123Z,26.62
2018-06-09T16:31:15.117Z,26.67
2018-06-09T16:33:43.869Z,26.76
2018-06-09T16:36:12.951Z,26.69
2018-06-09T16:38:41.552Z,26.68
2018-06-09T16:41:10.466Z,26.69
2018-06-09T16:43:39.282Z,26.77
2018-06-09T16:46:07.764Z,26.78
2018-06-09T16:48:36.369Z,26.83
2018-06-09T16:51:04.877Z,26.76
2018-06-09T16:53:33.494Z,26.78
2018-06-09T16:56:02.118Z,26.79
2018-06-09T16:58:30.945Z,26.74
2018-06-09T17:01:00.145Z,26.77
2018-06-09T17:03:28.678Z,26.85
2018-06-09T17:05:57.430Z,26.80
2018-06-09T17:08:26.275Z,26.90
2018-06-09T17:10:54.856Z,26.78
2018-06-09T17:13:23.762Z,26.82
2018-06-09T17:15:52.632Z,26.76
2018-06-09T17:18:21.275Z,26.72
2018-06-09T17:20:49.895Z,26.73
2018-06-09T17:23:18.546Z,26.74
2018-06-09T17:25:47.045Z,26.80
2018-06-09T17:28:16.037Z,26.77
2018-06-09T17:30:44.608Z,26.75
2018-06-09T17:33:13.247Z,26.78
2018-06-09T17:35:41.880Z,26.73
2018-06-09T17:38:10.580Z,26.71
2018-06-09T17:40:39.169Z,26.74
2018-06-09T17:43:07.957Z,26.72
2018-06-09T17:45:36.755Z,26.76
2018-06-09T17:48:05.372Z,26.76
2018-06-09T17:50:34.631Z,26.75
2018-06-09T17:53:03.160Z,26.71
2018-06-09T17:55:31.968Z,26.67
2018-06-09T17:58:00.531Z,26.70
2018-06-09T18:00:29.211Z,26.69
2018-06-09T18:02:57.723Z,26.73
2018-06-09T18:05:26.309Z,26.68
2018-06-09T18:07:55.030Z,26.68
2018-06-09T18:10:23.578Z,26.62
2018-06-09T18:12:52.121Z,26.60
2018-06-09T18:15:21.093Z,26.53
2018-06-09T18:17:49.924Z,26.48
2018-06-09T18:20:18.513Z,26.47
2018-06-09T18:22:47.109Z,26.45
2018-06-09T18:25:15.721Z,26.45
2018-06-09T18:27:44.477Z,26.45
2018-06-09T18:30:13.098Z,26.50
2018-06-09T18:32:41.607Z,26.41
2018-06-09T18:35:10.144Z,26.37
2018-06-09T18:37:38.878Z,26.31
2018-06-09T18:40:07.593Z,26.35
2018-06-09T18:42:36.091Z,26.30
2018-06-09T18:45:04.918Z,26.27
2018-06-09T18:47:34.508Z,26.27
2018-06-09T18:50:03.046Z,26.24
2018-06-09T18:52:31.865Z,26.24
2018-06-09T18:55:01.213Z,26.22
2018-06-09T18:57:30.089Z,26.14
2018-06-09T18:59:58.600Z,26.10
2018-06-09T19:02:27.152Z,26.06
2018-06-09T19:04:55.722Z,26.04
2018-06-09T19:07:24.380Z,25.99
2018-06-09T19:09:53.122Z,25.90
2018-06-09T19:12:22.205Z,25.86
2018-06-09T19:14:50.781Z,25.79
2018-06-09T19:17:20.006Z,25.75
2018-06-09T19:19:48.601Z,25.67
2018-06-09T19:22:17.252Z,25.62
2018-06-09T19:24:45.997Z,25.57
2018-06-09T19:27:14.649Z,25.44
2018-06-09T19:29:43.237Z,25.30
2018-06-09T19:32:11.921Z,25.20
2018-06-09T19:34:40.370Z,25.12
2018-06-09T19:37:08.932Z,25.06
2018-06-09T19:39:37.469Z,24.99
2018-06-09T19:42:06.157Z,25.03
2018-06-09T19:44:34.842Z,24.91
2018-06-09T19:47:03.344Z,24.68
2018-06-09T19:49:31.923Z,24.51
2018-06-09T19:52:00.503Z,24.58
2018-06-09T19:54:28.905Z,24.47
2018-06-09T19:56:57.396Z,24.23
2018-06-09T19:59:25.954Z,24.20
2018-06-09T20:01:54.574Z,24.14
2018-06-09T20:04:23.611Z,24.17
2018-06-09T20:06:52.160Z,24.13
2018-06-09T20:09:20.662Z,24.14
2018-06-09T20:11:49.244Z,24.13
2018-06-09T20:14:17.799Z,24.05
2018-06-09T20:16:46.557Z,23.91
2018-06-09T20:19:15.386Z,23.94
2018-06-09T20:21:43.884Z,23.90
2018-06-09T20:24:12.438Z,23.87
2018-06-09T20:26:40.957Z,23.70
2018-06-09T20:29:09.490Z,23.73
2018-06-09T20:31:38.189Z,23.60
2018-06-09T20:34:07.015Z,23.68
2018-06-09T20:36:37.018Z,23.67
2018-06-09T20:39:07.196Z,23.68
2018-06-09T20:41:36.174Z,23.64
2018-06-09T20:44:04.846Z,23.54
2018-06-09T20:46:33.921Z,23.54
2018-06-09T20:49:02.558Z,23.47
2018-06-09T20:51:31.312Z,23.46
2018-06-09T20:54:00.273Z,23.39
2018-06-09T20:56:29.117Z,23.30
2018-06-09T20:58:57.669Z,23.23
2018-06-09T21:01:26.735Z,23.24
2018-06-09T21:03:55.271Z,23.26
2018-06-09T21:06:24.184Z,23.25
2018-06-09T21:08:53.199Z,23.32
2018-06-09T21:11:21.741Z,23.38
2018-06-09T21:13:50.779Z,23.37
2018-06-09T21:16:19.308Z,23.43
2018-06-09T21:18:47.881Z,23.55
2018-06-09T21:21:17.815Z,23.54
2018-06-09T21:23:46.651Z,23.48
2018-06-09T21:26:15.201Z,23.40
2018-06-09T21:28:48.939Z,23.34
2018-06-09T21:31:22.701Z,23.38
2018-06-09T21:34:06.349Z,23.34
2018-06-09T21:36:40.071Z,23.32
2018-06-09T21:39:14.547Z,23.31
2018-06-09T21:41:48.743Z,23.35
2018-06-09T21:44:22.570Z,23.19
2018-06-09T21:46:51.387Z,23.20
2018-06-09T21:49:20.028Z,23.21
2018-06-09T21:51:48.744Z,23.19
2018-06-09T21:54:17.326Z,23.16
2018-06-09T21:56:46.000Z,23.14
2018-06-09T21:59:14.587Z,23.11
2018-06-09T22:01:43.271Z,23.07
2018-06-09T22:04:11.815Z,23.09
2018-06-09T22:06:40.301Z,23.08
2018-06-09T22:09:08.739Z,23.11
2018-06-09T22:11:37.355Z,23.04
2018-06-09T22:14:06.019Z,22.97
2018-06-09T22:16:34.505Z,23.00
2018-06-09T22:19:03.002Z,22.97
2018-06-09T22:21:31.539Z,22.90
2018-06-09T22:24:00.031Z,22.83
2018-06-09T22:26:28.547Z,22.88
2018-06-09T22:28:57.048Z,22.84
2018-06-09T22:31:25.530Z,22.84
2018-06-09T22:33:54.059Z,22.82
2018-06-09T22:36:22.557Z,22.81
2018-06-09T22:38:51.055Z,22.77
2018-06-09T22:41:19.630Z,22.71
2018-06-09T22:43:48.116Z,22.69
2018-06-09T22:46:16.676Z,22.66
2018-06-09T22:48:45.266Z,22.63
2018-06-09T22:51:13.897Z,22.57
2018-06-09T22:53:42.468Z,22.71
2018-06-09T22:56:10.979Z,22.77
2018-06-09T22:58:39.486Z,22.73
2018-06-09T23:01:08.114Z,22.71
2018-06-09T23:03:36.746Z,22.73
2018-06-09T23:06:05.439Z,22.71
2018-06-09T23:08:34.301Z,22.83
2018-06-09T23:11:02.824Z,22.72
2018-06-09T23:13:31.403Z,22.61
2018-06-09T23:15:59.985Z,22.60
2018-06-09T23:18:28.527Z,22.52
2018-06-09T23:20:57.045Z,22.40
2018-06-09T23:23:25.594Z,22.37
2018-06-09T23:25:54.179Z,22.27
2018-06-09T23:28:22.708Z,22.27
2018-06-09T23:30:51.263Z,22.23
2018-06-09T23:33:19.805Z,22.16
2018-06-09T23:35:48.307Z,22.23
2018-06-09T23:38:16.779Z,22.17
2018-06-09T23:40:45.408Z,22.11
2018-06-09T23:43:13.904Z,22.07
2018-06-09T23:45:42.431Z,22.09
2018-06-09T23:48:10.891Z,22.09
2018-06-09T23:50:39.504Z,22.03
2018-06-09T23:53:08.074Z,21.95
2018-06-09T23:55:36.594Z,21.95
2018-06-09T23:58:05.229Z,21.77
